createdAt,value
2019-04-29T00:06:16.294Z,9.18
2019-04-29T00:21:16.434Z,9.15
2019-04-29T00:36:16.547Z,9.10
2019-04-29T00:51:16.838Z,8.83
2019-04-29T01:06:17.242Z,8.81
2019-04-29T01:21:17.480Z,8.96
2019-04-29T01:36:18.043Z,8.84
2019-04-29T01:51:18.649Z,8.94
2019-04-29T02:06:18.937Z,8.68
2019-04-29T02:21:19.314Z,8.80
2019-04-29T02:36:19.559Z,8.53
2019-04-29T02:51:19.797Z,8.44
2019-04-29T03:06:19.991Z,8.63
2019-04-29T03:21:20.247Z,8.47
2019-04-29T03:36:20.479Z,8.61
2019-04-29T03:51:20.739Z,8.55
2019-04-29T04:06:20.789Z,8.77
2019-04-29T04:21:21.103Z,8.80
2019-04-29T04:36:21.290Z,8.95
2019-04-29T04:51:21.434Z,8.92
2019-04-29T05:06:21.704Z,8.98
2019-04-29T05:21:21.919Z,8.84
2019-04-29T05:36:22.276Z,8.91
2019-04-29T05:51:22.742Z,9.14
2019-04-29T06:06:26.756Z,9.29
2019-04-29T06:21:27.875Z,9.32
2019-04-29T06:36:28.074Z,9.43
2019-04-29T06:51:28.217Z,9.51
2019-04-29T07:06:28.516Z,9.69
2019-04-29T07:21:28.739Z,9.90
2019-04-29T07:36:28.941Z,10.17
2019-04-29T07:51:29.130Z,10.11
2019-04-29T08:06:29.802Z,10.36
2019-04-29T08:21:29.938Z,10.34
2019-04-29T08:36:30.007Z,10.04
2019-04-29T08:51:30.131Z,10.01
2019-04-29T09:06:32.565Z,10.25
2019-04-29T09:21:34.617Z,10.25
2019-04-29T09:36:34.827Z,10.23
2019-04-29T09:51:35.026Z,10.51
2019-04-29T10:06:35.219Z,10.52
2019-04-29T10:21:35.464Z,10.61
2019-04-29T10:36:35.640Z,10.97
2019-04-29T10:51:35.817Z,11.52
2019-04-29T11:06:37.035Z,11.99
2019-04-29T11:21:38.994Z,12.64
2019-04-29T11:36:43.719Z,13.52
2019-04-29T11:52:07.905Z,14.18
2019-04-29T12:06:51.308Z,14.36
2019-04-29T12:21:54.740Z,14.81
2019-04-29T12:36:56.797Z,15.64
2019-04-29T12:51:57.605Z,16.50
2019-04-29T13:06:57.814Z,17.40
2019-04-29T13:21:58.034Z,18.37
2019-04-29T13:37:07.183Z,19.16
2019-04-29T13:52:03.383Z,20.70
2019-04-29T14:07:03.567Z,21.09
2019-04-29T14:22:03.882Z,21.99
2019-04-29T14:37:19.843Z,22.77
2019-04-29T14:52:13.165Z,24.09
2019-04-29T15:07:14.665Z,24.68
2019-04-29T15:22:14.699Z,24.53
2019-04-29T15:37:15.020Z,23.90
2019-04-29T15:52:16.037Z,23.22
2019-04-29T16:07:17.642Z,22.72
2019-04-29T16:22:20.415Z,22.00
2019-04-29T16:52:27.932Z,18.50
2019-04-29T17:07:28.690Z,16.98
2019-04-29T17:22:28.958Z,15.93
2019-04-29T17:35:18.800Z,20.21
2019-04-29T17:37:29.169Z,14.99
2019-04-29T17:52:30.676Z,14.22
2019-04-29T18:07:30.868Z,13.26
2019-04-29T18:22:31.083Z,12.62
2019-04-29T18:37:36.874Z,11.73
2019-04-29T18:52:36.497Z,11.22
2019-04-29T19:07:39.678Z,10.15
2019-04-29T19:22:44.163Z,9.40
2019-04-29T19:37:45.637Z,9.04
2019-04-29T19:52:48.281Z,8.77
2019-04-29T20:07:51.221Z,8.53
2019-04-29T20:22:51.704Z,8.30
2019-04-29T20:37:55.611Z,7.89
2019-04-29T20:53:01.838Z,7.74
2019-04-29T21:08:03.563Z,7.25
2019-04-29T21:23:07.208Z,6.73
2019-04-29T21:38:07.322Z,6.52
2019-04-29T21:53:07.475Z,6.15
2019-04-29T22:08:07.641Z,5.90
2019-04-29T22:23:12.997Z,5.75
2019-04-29T22:38:16.244Z,5.75
2019-04-29T22:53:17.246Z,5.67
2019-04-29T23:08:17.394Z,5.27
2019-04-29T23:23:17.617Z,5.13
2019-04-29T23:38:17.804Z,4.94
2019-04-29T23:53:20.757Z,4.75
